Impacts METAR Board INFO
IDs:

KNEW - New Orleans/Lakefron, LA, US

Updated at: 0838 UTC 23 Feb 2018
Potential Impact None Slight Moderate High
Time22/20Z 22/21Z 22/22Z 22/23Z 23/00Z 23/01Z 23/02Z 23/03Z 23/04Z 23/05Z 23/06Z 23/07Z 23/08Z
VIS9 9 7 10 5 6 6 6 6 6 6 7 7
CIG-- -- 35 30 23 10 27 32 19 18 20 20 --
CoverFEWSCTBKNBKNOVCOVCOVCOVCOVCOVCBKNOVCCLR
FltCatVFRVFRVFRMVFRMVFRMVFRMVFRVFRMVFRMVFRMVFRMVFRVFR
WX--------HZBRBRBRBRBRBR----
WDir140130100110110130120120120120120130130
WSpd11 12 14 12 8 10 10 10 9 13 9 9 7
WGst-- -- -- 17 -- -- -- -- -- -- -- -- --
Raw hourly METARs
KNEW 221953Z 14011KT 9SM FEW037 29/19 A3027 RMK AO2 SLP243 T02890194 $
KNEW 222053Z 13012KT 9SM SCT040 28/19 A3025 RMK AO2 SLP237 T02830194 56020
KNEW 222153Z 10014KT 7SM SCT025 BKN035 26/21 A3025 RMK AO2 SLP237 T02560211
KNEW 222253Z COR 11012G17KT 10SM SCT022 BKN030 BKN036 25/21 A3025 RMK AO2 SLP238 T02500211
KNEW 222353Z 11008KT 5SM HZ SCT018 OVC023 24/22 A3027 RMK AO2 SLP242 T02440217 10294 20244 53005
KNEW 230102Z 13010KT 6SM BR BKN010 OVC027 23/22 A3028 RMK AO2 T02330217
KNEW 230153Z 12010KT 6SM BR FEW010 OVC027 23/21 A3030 RMK AO2 SLP253 T02330211
KNEW 230253Z 12010KT 6SM BR OVC032 23/21 A3031 RMK AO2 SLP256 T02280211 53014
KNEW 230353Z AUTO 12009KT 6SM BR SCT012 OVC019 23/21 A3031 RMK AO2 SLP257 T02280211
KNEW 230453Z AUTO 12013KT 6SM BR FEW009 BKN018 OVC060 23/21 A3031 RMK AO2 SLP256 T02280211
KNEW 230553Z AUTO 12009KT 6SM BR BKN020 22/21 A3030 RMK AO2 SLP252 T02220206 10244 20222 402940217 58004
KNEW 230653Z AUTO 13009KT 7SM OVC020 22/20 A3029 RMK AO2 SLP250 T02170200
KNEW 230753Z AUTO 13007KT 7SM CLR 22/20 A3028 RMK AO2 SLP246 T02170200